Time;durP1;ratioP1;P1;durP2;ratioP2;P2;SDS_P1;SDS_P2;PMS_P1;PMS_P2;Temp;Humidity;BMP_temperature;BMP_pressure;BME280_temperature;BME280_humidity;BME280_pressure;Samples;Min_cycle;Max_cycle;Signal;HPM_P1;HPM_P2
2022/06/02 00:00:22;;;;;;;11.20;9.32;;;;;;;7.99;100.00;101815.41;5215182;28;20484;-65
2022/06/02 00:03:02;;;;;;;11.70;9.75;;;;;;;7.88;100.00;101820.44;5199615;28;20030;-64
2022/06/02 00:05:50;;;;;;;11.63;9.90;;;;;;;7.93;100.00;101814.88;5200713;28;20033;-64
2022/06/02 00:08:59;;;;;;;13.80;9.60;;;;;;;7.92;100.00;101815.78;5206912;28;20033;-64
2022/06/02 00:11:56;;;;;;;12.75;10.35;;;;;;;7.86;100.00;101822.28;5198452;28;20038;-65
2022/06/02 00:14:51;;;;;;;14.20;10.75;;;;;;;7.86;100.00;101832.91;5206682;28;20110;-64
2022/06/02 00:17:32;;;;;;;;;;;;;;;7.88;100.00;101822.19;5204869;28;20126;-64
2022/06/02 00:20:14;;;;;;;11.95;10.07;;;;;;;7.81;100.00;101822.50;5202156;28;20021;-64
2022/06/02 00:23:10;;;;;;;15.10;10.90;;;;;;;7.77;100.00;101823.59;5200379;28;20106;-65
2022/06/02 00:26:03;;;;;;;11.80;10.60;;;;;;;7.73;100.00;101826.47;5215079;28;20056;-64
2022/06/02 00:28:44;;;;;;;13.70;10.38;;;;;;;7.66;100.00;101816.16;5200738;28;20061;-65
2022/06/02 00:31:53;;;;;;;14.43;10.65;;;;;;;7.66;100.00;101826.78;5215427;28;20499;-65
2022/06/02 00:34:39;;;;;;;12.18;10.88;;;;;;;7.64;100.00;101827.78;5208676;28;20026;-65
2022/06/02 00:37:35;;;;;;;12.65;10.35;;;;;;;7.62;100.00;101830.50;5214156;28;20040;-66
2022/06/02 00:40:09;;;;;;;12.18;10.98;;;;;;;7.57;100.00;101824.56;5210189;28;20042;-66
2022/06/02 00:42:53;;;;;;;14.93;10.87;;;;;;;7.51;100.00;101829.31;5203537;28;20122;-66
2022/06/02 00:45:25;;;;;;;12.50;10.60;;;;;;;7.55;100.00;101825.56;5203133;28;20084;-65
2022/06/02 00:48:22;;;;;;;13.98;10.70;;;;;;;7.51;100.00;101829.31;5212891;28;20100;-65
2022/06/02 00:50:58;;;;;;;13.40;10.88;;;;;;;7.35;100.00;101832.69;5204128;28;20092;-65
2022/06/02 01:00:09;;;;;;;15.00;12.10;;;;;;;7.36;100.00;101836.22;5217266;28;20432;-65
2022/06/02 01:02:46;;;;;;;14.02;11.63;;;;;;;7.32;100.00;101838.13;5216018;28;20623;-65
2022/06/02 01:05:54;;;;;;;14.23;11.85;;;;;;;7.30;100.00;101836.50;5217049;28;20370;-65
2022/06/02 01:08:45;;;;;;;13.00;11.38;;;;;;;7.27;100.00;101829.56;5212794;28;20064;-66
2022/06/02 01:11:48;;;;;;;15.10;12.77;;;;;;;7.25;100.00;101834.06;5211756;28;20191;-65
2022/06/02 01:14:28;;;;;;;13.55;11.18;;;;;;;7.24;100.00;101829.69;5213099;28;20033;-65
2022/06/02 01:17:18;;;;;;;15.20;11.20;;;;;;;7.19;100.00;101827.25;5216535;28;20532;-65
2022/06/02 01:20:07;;;;;;;13.40;11.82;;;;;;;7.03;100.00;101829.72;5212875;28;20038;-65
2022/06/02 01:23:00;;;;;;;15.00;12.45;;;;;;;7.11;100.00;101829.38;5199843;28;20033;-65
2022/06/02 01:25:52;;;;;;;16.27;13.13;;;;;;;7.12;100.00;101824.97;5216988;28;20051;-65
2022/06/02 01:28:59;;;;;;;15.93;13.88;;;;;;;7.11;100.00;101831.19;5214401;28;20022;-65
2022/06/02 01:31:57;;;;;;;16.17;13.00;;;;;;;7.09;100.00;101833.03;5202007;28;20041;-65
2022/06/02 01:34:50;;;;;;;17.42;13.85;;;;;;;7.06;100.00;101842.88;5206617;28;20476;-65
2022/06/02 01:37:48;;;;;;;18.88;13.45;;;;;;;7.04;100.00;101835.94;5205899;28;20030;-65
2022/06/02 01:40:28;;;;;;;14.32;12.32;;;;;;;7.06;100.00;101840.22;5206754;28;20133;-65
2022/06/02 01:42:59;;;;;;;16.38;12.68;;;;;;;6.98;100.00;101837.06;5205407;28;20037;-65
2022/06/02 01:45:47;;;;;;;17.95;13.30;;;;;;;7.00;100.00;101836.97;5209607;28;20023;-65
2022/06/02 01:48:43;;;;;;;16.05;13.45;;;;;;;6.98;100.00;101841.50;5204320;28;20027;-65
2022/06/02 01:51:15;;;;;;;18.50;13.85;;;;;;;6.99;100.00;101832.63;5210010;28;20073;-65
2022/06/02 01:54:03;;;;;;;15.05;12.85;;;;;;;6.95;100.00;101831.03;5209140;28;20030;-65
2022/06/02 01:56:52;;;;;;;14.32;12.75;;;;;;;6.92;100.00;101833.81;5203758;28;20041;-65
2022/06/02 01:59:39;;;;;;;15.57;12.00;;;;;;;6.88;100.00;101833.09;5206173;28;20113;-65
2022/06/02 02:02:32;;;;;;;15.02;13.18;;;;;;;6.87;100.00;101832.22;5206526;28;20538;-65
2022/06/02 02:05:19;;;;;;;19.38;13.43;;;;;;;6.84;100.00;101835.00;5210214;28;20112;-65
2022/06/02 02:08:32;;;;;;;15.63;12.32;;;;;;;6.71;100.00;101841.78;5215560;28;20108;-65
2022/06/02 02:11:18;;;;;;;16.40;13.30;;;;;;;6.64;100.00;101841.22;5171760;28;20054;-65
2022/06/02 02:14:07;;;;;;;18.73;14.10;;;;;;;6.66;100.00;101844.66;5210230;28;20259;-65
2022/06/02 02:17:17;;;;;;;16.95;14.20;;;;;;;6.61;100.00;101840.50;5201302;28;20081;-65
2022/06/02 02:20:16;;;;;;;17.90;14.35;;;;;;;6.64;100.00;101840.38;5209939;28;20038;-65
2022/06/02 02:22:57;;;;;;;20.17;16.65;;;;;;;6.56;100.00;101843.34;5210830;28;20269;-65
2022/06/02 02:25:54;;;;;;;20.38;17.02;;;;;;;6.58;100.00;101845.94;5199862;28;20038;-65
2022/06/02 02:28:28;;;;;;;23.33;17.95;;;;;;;6.59;100.00;101843.19;5203521;28;20021;-65
2022/06/02 02:31:10;;;;;;;21.55;18.05;;;;;;;6.50;100.00;101851.56;5216585;28;20073;-65
2022/06/02 02:34:06;;;;;;;23.73;18.50;;;;;;;6.50;100.00;101853.34;5201684;28;20388;-65
2022/06/02 02:36:44;;;;;;;22.85;18.50;;;;;;;6.48;100.00;101848.09;5205542;28;20040;-65
2022/06/02 02:39:40;;;;;;;24.40;19.50;;;;;;;6.48;100.00;101846.34;5208630;28;20029;-65
2022/06/02 02:42:20;;;;;;;24.38;18.55;;;;;;;6.39;100.00;101851.19;5210820;28;20101;-65
2022/06/02 02:45:13;;;;;;;24.60;19.80;;;;;;;6.36;100.00;101846.84;5211532;28;20030;-65
2022/06/02 02:47:50;;;;;;;25.85;20.08;;;;;;;6.39;100.00;101849.38;5203941;28;20038;-65
2022/06/02 02:50:30;;;;;;;25.25;20.08;;;;;;;6.29;100.00;101848.06;5215420;28;20014;-65
2022/06/02 02:53:09;;;;;;;25.35;19.92;;;;;;;6.26;100.00;101854.31;5215564;28;20133;-65
2022/06/02 02:55:51;;;;;;;24.63;19.65;;;;;;;6.23;100.00;101859.78;5209686;28;20033;-65
2022/06/02 02:58:31;;;;;;;25.58;20.30;;;;;;;6.15;100.00;101859.22;5207929;28;20099;-65
2022/06/02 03:01:09;;;;;;;25.85;19.33;;;;;;;6.25;100.00;101862.34;5205565;28;20036;-65
2022/06/02 03:04:02;;;;;;;25.67;20.35;;;;;;;6.21;100.00;101858.09;5200193;28;20076;-65
2022/06/02 03:06:38;;;;;;;24.92;20.67;;;;;;;6.20;100.00;101864.34;5208676;28;20511;-65
2022/06/02 03:09:18;;;;;;;26.67;22.08;;;;;;;6.27;100.00;101864.03;5197720;28;20408;-65
2022/06/02 03:11:52;;;;;;;28.33;21.25;;;;;;;6.23;100.00;101872.13;5207246;28;20060;-65
2022/06/02 03:14:59;;;;;;;26.33;20.42;;;;;;;6.22;100.00;101865.13;5206940;28;20073;-65
2022/06/02 03:18:02;;;;;;;24.95;19.48;;;;;;;6.14;100.00;101875.19;5209807;28;20056;-65
2022/06/02 03:20:55;;;;;;;26.63;20.95;;;;;;;6.15;100.00;101874.25;5207366;28;20453;-65
2022/06/02 03:24:05;;;;;;;27.80;22.00;;;;;;;6.15;100.00;101879.56;5213642;28;20029;-65
2022/06/02 03:26:57;;;;;;;25.27;21.20;;;;;;;6.12;100.00;101875.25;5206414;28;20113;-65
2022/06/02 03:29:59;;;;;;;25.95;21.42;;;;;;;6.15;100.00;101877.75;5196608;28;20034;-65
2022/06/02 03:32:50;;;;;;;27.50;21.83;;;;;;;6.15;100.00;101883.06;5202800;28;20033;-65
2022/06/02 03:35:46;;;;;;;31.05;22.92;;;;;;;6.13;100.00;101894.66;5200059;28;20026;-65
2022/06/02 03:38:27;;;;;;;26.95;21.33;;;;;;;6.10;100.00;101890.34;5212547;28;20048;-65
2022/06/02 03:41:17;;;;;;;28.38;22.48;;;;;;;6.10;100.00;101895.66;5205985;28;20480;-65
2022/06/02 03:43:57;;;;;;;29.35;23.33;;;;;;;6.09;100.00;101899.22;5211015;28;20697;-65
2022/06/02 03:47:02;;;;;;;31.45;24.02;;;;;;;5.98;100.00;101901.44;5207096;28;20384;-65
2022/06/02 03:50:10;;;;;;;29.98;23.73;;;;;;;6.01;100.00;101898.66;5194945;28;20058;-65
2022/06/02 03:52:54;;;;;;;31.73;22.90;;;;;;;6.00;100.00;101897.81;5222371;28;20030;-65
2022/06/02 03:55:44;;;;;;;29.27;23.38;;;;;;;5.99;100.00;101903.16;5215603;28;20049;-65
2022/06/02 03:58:45;;;;;;;32.60;23.48;;;;;;;6.03;100.00;101905.63;5202045;28;20416;-65
2022/06/02 04:01:25;;;;;;;30.00;23.42;;;;;;;6.01;100.00;101904.81;5214426;28;20029;-65
2022/06/02 04:04:05;;;;;;;30.55;24.95;;;;;;;5.92;100.00;101905.16;5207317;28;20065;-65
2022/06/02 04:07:06;;;;;;;33.05;25.33;;;;;;;5.96;100.00;101904.13;5201050;28;20029;-65
2022/06/02 04:09:49;;;;;;;33.83;24.88;;;;;;;5.95;100.00;101909.50;5211149;28;20018;-65
2022/06/02 04:15:31;;;;;;;35.47;25.52;;;;;;;5.99;100.00;101916.41;5211232;28;20033;-65
2022/06/02 04:18:37;;;;;;;36.75;25.92;;;;;;;6.02;100.00;101919.81;5212413;28;20125;-65
2022/06/02 04:21:25;;;;;;;34.22;25.20;;;;;;;6.07;100.00;101922.25;5214741;28;20061;-65
2022/06/02 04:24:34;;;;;;;34.75;26.70;;;;;;;6.09;100.00;101923.91;5218626;28;20109;-65
2022/06/02 04:27:17;;;;;;;38.65;27.42;;;;;;;6.15;100.00;101924.59;5200792;28;20393;-65
2022/06/02 04:29:58;;;;;;;37.88;27.25;;;;;;;6.21;100.00;101929.66;5219265;28;20109;-65
2022/06/02 04:32:41;;;;;;;37.30;27.20;;;;;;;6.05;100.00;101924.97;5211427;28;20057;-65
2022/06/02 04:35:38;;;;;;;37.63;28.38;;;;;;;6.18;100.00;101933.28;5206620;28;20022;-65
2022/06/02 04:38:29;;;;;;;36.60;27.23;;;;;;;6.11;100.00;101931.81;5210269;28;20034;-65
2022/06/02 04:41:20;;;;;;;37.85;28.35;;;;;;;6.09;100.00;101937.16;5210872;28;20045;-65
2022/06/02 04:44:00;;;;;;;40.90;30.23;;;;;;;6.19;100.00;101931.50;5210947;28;20273;-65
2022/06/02 04:46:47;;;;;;;41.63;29.85;;;;;;;6.22;100.00;101936.69;5210581;28;20053;-65
2022/06/02 04:49:33;;;;;;;44.08;31.80;;;;;;;6.25;100.00;101939.19;5207519;28;20482;-65
2022/06/02 04:52:24;;;;;;;42.78;31.67;;;;;;;6.24;100.00;101938.34;5206261;28;20382;-65
2022/06/02 04:55:22;;;;;;;45.28;31.48;;;;;;;6.27;100.00;101940.88;5208890;28;20423;-65
2022/06/02 04:58:14;;;;;;;41.42;30.65;;;;;;;6.24;100.00;101934.84;5212633;28;20030;-65
2022/06/02 05:00:57;;;;;;;42.55;30.42;;;;;;;6.23;100.00;101938.38;5212827;28;20225;-65
2022/06/02 05:03:44;;;;;;;44.88;31.58;;;;;;;6.32;100.00;101943.31;5208111;28;20033;-66
2022/06/02 05:06:51;;;;;;;47.08;34.08;;;;;;;6.38;100.00;101944.88;5213812;28;20026;-65
2022/06/02 05:09:32;;;;;;;46.55;32.80;;;;;;;6.46;100.00;101948.06;5213289;28;20026;-65
2022/06/02 05:12:30;;;;;;;49.08;34.53;;;;;;;6.55;100.00;101952.97;5215069;28;20453;-65
2022/06/02 05:15:36;;;;;;;56.10;35.75;;;;;;;6.58;100.00;101946.69;5216440;28;20044;-65
2022/06/02 05:18:41;;;;;;;47.90;33.15;;;;;;;6.63;100.00;101950.84;5216723;28;20128;-65
2022/06/02 05:21:24;;;;;;;48.58;33.83;;;;;;;6.71;100.00;101944.38;5213348;28;20029;-65
2022/06/02 05:24:07;;;;;;;48.08;34.15;;;;;;;6.73;100.00;101947.81;5211023;28;20046;-65
2022/06/02 05:27:18;;;;;;;50.05;34.85;;;;;;;6.85;100.00;101947.31;5207588;28;20033;-65
2022/06/02 05:30:05;;;;;;;53.13;36.03;;;;;;;6.90;100.00;101940.00;5203262;28;20049;-65
2022/06/02 05:32:55;;;;;;;56.38;38.60;;;;;;;6.99;100.00;101944.91;5229026;28;20045;-65
2022/06/02 05:36:07;;;;;;;51.47;36.20;;;;;;;7.06;100.00;101956.13;5208579;28;20537;-65
2022/06/02 05:39:00;;;;;;;56.45;37.40;;;;;;;7.19;100.00;101946.69;5216730;28;20445;-65
2022/06/02 05:41:47;;;;;;;58.10;38.40;;;;;;;7.32;100.00;101941.69;5205930;28;20026;-65
2022/06/02 05:44:57;;;;;;;56.22;39.10;;;;;;;7.41;100.00;101945.72;5203866;28;20041;-65
2022/06/02 05:47:40;;;;;;;55.58;36.65;;;;;;;7.58;100.00;101948.47;5218020;28;20110;-65
2022/06/02 05:50:58;;;;;;;51.55;36.35;;;;;;;7.56;100.00;101949.47;5203462;28;20104;-65
2022/06/02 05:53:40;;;;;;;53.03;37.33;;;;;;;7.78;100.00;101959.94;5219276;28;20116;-65
2022/06/02 05:56:39;;;;;;;56.45;36.53;;;;;;;7.92;100.00;101956.63;5217542;28;20118;-65
2022/06/02 05:59:45;;;;;;;55.92;38.10;;;;;;;8.02;100.00;101964.09;5223114;28;20488;-65
2022/06/02 06:02:41;;;;;;;50.00;35.55;;;;;;;8.07;100.00;101971.00;5205793;28;20026;-65
2022/06/02 06:05:29;;;;;;;48.53;34.42;;;;;;;8.20;100.00;101970.31;5209747;28;20049;-65
2022/06/02 06:08:18;;;;;;;48.25;34.88;;;;;;;8.20;100.00;101972.13;5207187;28;20034;-65
2022/06/02 06:11:11;;;;;;;46.67;34.00;;;;;;;8.40;100.00;101980.00;5212830;28;20480;-65
2022/06/02 06:14:03;;;;;;;48.05;33.80;;;;;;;8.44;100.00;101984.25;5228808;28;20026;-65
2022/06/02 06:16:43;;;;;;;40.45;32.00;;;;;;;8.71;100.00;101983.84;5210581;28;20058;-65
2022/06/02 06:19:48;;;;;;;43.90;32.40;;;;;;;8.83;100.00;101993.84;5203968;28;20061;-65
2022/06/02 06:22:28;;;;;;;34.37;27.83;;;;;;;8.94;100.00;101995.13;5207313;28;20108;-65
2022/06/02 06:25:12;;;;;;;34.30;28.90;;;;;;;9.17;100.00;101986.78;5216520;28;20056;-65
2022/06/02 06:28:27;;;;;;;33.42;27.67;;;;;;;9.25;100.00;101998.84;5206662;28;20034;-65
2022/06/02 06:31:05;;;;;;;;;;;;;;;9.29;100.00;101992.41;5208098;28;20034;-65
2022/06/02 06:34:07;;;;;;;31.20;25.25;;;;;;;9.59;100.00;101992.59;5209741;28;19909;-65
2022/06/02 06:37:10;;;;;;;28.35;23.00;;;;;;;9.69;100.00;101999.13;5211722;28;20044;-65
2022/06/02 06:40:28;;;;;;;24.30;19.52;;;;;;;9.86;100.00;101995.56;5210890;28;20026;-65
2022/06/02 06:43:21;;;;;;;22.75;19.65;;;;;;;10.05;100.00;102005.19;5206039;28;20042;-65
2022/06/02 06:46:16;;;;;;;24.33;19.10;;;;;;;10.09;100.00;102007.59;5201826;28;20034;-64
2022/06/02 06:49:04;;;;;;;21.13;18.40;;;;;;;10.24;100.00;102008.56;5212741;28;20038;-65
2022/06/02 06:52:35;;;;;;;19.30;16.25;;;;;;;10.32;100.00;102008.16;5215993;28;20436;-65
2022/06/02 06:55:21;;;;;;;19.48;16.73;;;;;;;10.52;100.00;102020.34;5207424;28;20171;-65
2022/06/02 06:58:23;;;;;;;18.05;16.02;;;;;;;10.73;100.00;102019.09;5209264;28;20037;-64
2022/06/02 07:01:24;;;;;;;21.27;17.25;;;;;;;10.81;100.00;102028.47;5212487;28;20050;-65
2022/06/02 07:04:13;;;;;;;17.63;15.65;;;;;;;10.92;100.00;102018.03;5212577;28;20048;-65
2022/06/02 07:06:56;;;;;;;18.90;16.75;;;;;;;11.03;100.00;102026.25;5208404;28;20037;-65
2022/06/02 07:09:41;;;;;;;16.48;14.77;;;;;;;11.16;100.00;102018.34;5208565;28;20026;-65
2022/06/02 07:13:12;;;;;;;18.08;16.17;;;;;;;11.27;100.00;102029.25;5207137;28;20084;-64
2022/06/02 07:15:23;;;;;;;17.63;14.77;;;;;;;11.26;100.00;102032.03;5203048;28;20045;-65
2022/06/02 07:17:57;;;;;;;16.73;14.73;;;;;;;11.42;100.00;102029.28;5207741;28;20104;-65
2022/06/02 07:20:45;;;;;;;16.98;14.88;;;;;;;11.44;100.00;102038.06;5212315;28;20033;-64
2022/06/02 07:23:32;;;;;;;14.88;13.25;;;;;;;11.52;100.00;102041.97;5203067;28;20040;-65
2022/06/02 07:26:40;;;;;;;15.50;13.73;;;;;;;11.52;100.00;102036.63;5208469;28;20038;-65
2022/06/02 07:29:17;;;;;;;15.70;13.65;;;;;;;11.63;100.00;102045.81;5205360;28;20112;-65
2022/06/02 07:32:11;;;;;;;14.13;11.93;;;;;;;11.77;100.00;102044.03;5202823;28;20038;-65
2022/06/02 07:35:02;;;;;;;13.15;11.18;;;;;;;11.90;100.00;102053.97;5201537;28;20034;-65
2022/06/02 07:37:45;;;;;;;10.07;8.32;;;;;;;12.08;96.96;102057.28;5205679;28;20025;-65
2022/06/02 07:40:28;;;;;;;13.05;10.00;;;;;;;12.10;99.35;102050.91;5205459;28;20040;-65
2022/06/02 07:43:28;;;;;;;15.20;11.07;;;;;;;12.11;99.24;102057.09;5201503;28;20681;-65
2022/06/02 07:46:24;;;;;;;12.20;10.15;;;;;;;12.20;96.86;102056.53;5200150;28;20099;-65
2022/06/02 07:49:25;;;;;;;11.88;9.82;;;;;;;12.20;94.72;102053.00;5197328;28;20710;-65
2022/06/02 07:52:17;;;;;;;12.02;10.82;;;;;;;12.20;94.66;102045.81;5205439;28;20068;-65
2022/06/02 07:55:18;;;;;;;11.95;10.10;;;;;;;12.28;96.41;102056.88;5208600;28;20041;-65
2022/06/02 07:57:59;;;;;;;14.65;11.82;;;;;;;12.24;95.87;102047.34;5206431;28;20046;-65
2022/06/02 08:00:42;;;;;;;13.38;11.98;;;;;;;12.28;93.09;102054.22;5205487;28;20038;-65
2022/06/02 08:03:37;;;;;;;14.20;12.00;;;;;;;12.43;94.16;102052.38;5208171;28;20292;-65
2022/06/02 08:06:19;;;;;;;14.70;12.15;;;;;;;12.57;91.35;102046.09;5206714;28;20026;-65
2022/06/02 08:09:28;;;;;;;13.18;11.75;;;;;;;12.58;91.39;102053.19;5202612;28;20100;-65
2022/06/02 08:12:19;;;;;;;14.18;11.20;;;;;;;12.66;91.90;102050.00;5200581;28;20184;-65
2022/06/02 08:15:06;;;;;;;15.75;10.63;;;;;;;12.61;91.57;102052.97;5195833;28;20501;-65
2022/06/02 08:17:47;;;;;;;14.00;10.65;;;;;;;12.68;89.62;102054.28;5198171;28;20046;-65
2022/06/02 08:20:27;;;;;;;12.38;10.48;;;;;;;12.74;87.40;102053.03;5210055;28;20022;-65
2022/06/02 08:23:11;;;;;;;12.82;10.65;;;;;;;12.97;87.98;102040.78;5210717;28;20132;-65
2022/06/02 08:25:57;;;;;;;13.35;10.02;;;;;;;13.03;87.81;102045.72;5211717;28;20449;-65
2022/06/02 08:28:40;;;;;;;11.75;10.50;;;;;;;13.26;88.51;102049.50;5212430;28;20038;-65
2022/06/02 08:31:19;;;;;;;11.82;10.52;;;;;;;13.34;87.10;102057.03;5212686;28;20232;-65
2022/06/02 08:34:00;;;;;;;12.65;10.80;;;;;;;13.33;92.39;102053.50;5208123;28;20034;-65
2022/06/02 08:36:59;;;;;;;12.40;10.50;;;;;;;13.48;86.97;102045.34;5210164;28;20033;-65
2022/06/02 08:39:37;;;;;;;13.15;9.82;;;;;;;13.57;87.43;102060.81;5205536;28;20544;-64
2022/06/02 08:42:12;;;;;;;12.05;9.75;;;;;;;13.66;90.53;102062.84;5211114;28;20684;-65
2022/06/02 08:45:19;;;;;;;11.88;9.85;;;;;;;13.81;87.94;102057.38;5212478;28;20551;-65
2022/06/02 08:48:15;;;;;;;10.98;9.25;;;;;;;14.00;86.72;102067.63;5206727;28;20534;-65
2022/06/02 08:51:28;;;;;;;9.02;8.13;;;;;;;14.07;86.67;102052.81;5211413;28;20464;-65
2022/06/02 08:54:33;;;;;;;10.93;8.30;;;;;;;14.11;82.88;102059.69;5209685;28;20030;-65
2022/06/02 08:57:23;;;;;;;8.80;7.90;;;;;;;14.16;81.52;102067.41;5214158;28;20025;-65
2022/06/02 09:00:12;;;;;;;7.30;5.82;;;;;;;14.34;76.33;102059.84;5210069;28;20050;-65
2022/06/02 09:03:08;;;;;;;7.55;5.25;;;;;;;14.43;76.09;102064.56;5213316;28;20037;-65
2022/06/02 09:05:57;;;;;;;7.90;5.80;;;;;;;14.49;75.18;102053.34;5214337;28;20033;-65
2022/06/02 09:08:57;;;;;;;7.20;5.15;;;;;;;14.68;77.58;102056.41;5212383;28;20116;-65
2022/06/02 09:11:41;;;;;;;6.75;5.30;;;;;;;14.75;75.49;102050.59;5214312;28;20034;-65
2022/06/02 09:14:30;;;;;;;6.80;5.28;;;;;;;14.86;77.75;102056.00;5215384;28;20030;-65
2022/06/02 09:17:20;;;;;;;7.10;5.45;;;;;;;14.93;76.41;102059.94;5213821;28;20716;-65
2022/06/02 09:20:12;;;;;;;7.25;5.07;;;;;;;15.28;75.47;102059.97;5211029;28;20113;-65
2022/06/02 09:23:03;;;;;;;6.93;4.95;;;;;;;15.48;74.10;102063.78;5210758;28;20037;-65
2022/06/02 09:25:53;;;;;;;8.00;5.60;;;;;;;15.75;71.42;102062.63;5214771;28;20502;-65
2022/06/02 09:28:59;;;;;;;6.63;5.50;;;;;;;15.80;73.58;102056.84;5211365;28;20080;-65
2022/06/02 09:31:55;;;;;;;7.70;6.90;;;;;;;15.81;72.56;102048.66;5213798;28;20033;-65
2022/06/02 09:34:54;;;;;;;9.32;7.72;;;;;;;15.75;70.39;102054.53;5214216;28;20515;-65
2022/06/02 09:37:52;;;;;;;8.57;7.25;;;;;;;15.89;72.69;102045.38;5214815;28;20018;-65
2022/06/02 09:40:50;;;;;;;8.15;7.32;;;;;;;15.84;69.39;102055.66;5214353;28;20038;-65
2022/06/02 09:43:21;;;;;;;8.07;7.28;;;;;;;15.97;67.56;102058.22;5213926;28;20040;-65
2022/06/02 09:46:14;;;;;;;8.57;7.60;;;;;;;15.95;66.39;102057.47;5211506;28;20026;-65
2022/06/02 09:48:58;;;;;;;7.82;7.03;;;;;;;16.08;67.44;102047.44;5212971;28;20034;-65
2022/06/02 09:51:45;;;;;;;10.23;8.05;;;;;;;15.90;65.22;102052.47;5213676;28;20045;-65
2022/06/02 09:54:41;;;;;;;9.55;8.57;;;;;;;15.90;66.43;102049.78;5206282;28;20025;-65
2022/06/02 10:00:22;;;;;;;8.20;7.40;;;;;;;16.22;68.38;102049.00;5208776;28;20033;-65
2022/06/02 10:03:31;;;;;;;7.65;6.85;;;;;;;16.42;69.58;102052.78;5210770;28;20176;-65
2022/06/02 10:06:24;;;;;;;8.57;7.00;;;;;;;16.44;67.36;102050.81;5214983;28;20029;-65
2022/06/02 10:09:22;;;;;;;9.23;7.22;;;;;;;16.55;66.60;102050.78;5215627;28;20061;-66
2022/06/02 10:15:24;;;;;;;7.63;6.82;;;;;;;16.67;64.77;102049.75;5204086;28;20074;-66
2022/06/02 10:18:17;;;;;;;7.43;6.65;;;;;;;16.72;61.88;102056.59;5198871;28;20053;-65
2022/06/02 10:20:56;;;;;;;6.10;5.25;;;;;;;16.71;59.57;102044.13;5202898;28;20053;-65
2022/06/02 10:24:02;;;;;;;8.60;6.97;;;;;;;16.49;61.96;102037.81;5206292;28;20477;-66
2022/06/02 10:27:11;;;;;;;7.32;5.53;;;;;;;16.72;64.72;102048.50;5199611;28;20519;-65
2022/06/02 10:30:20;;;;;;;7.18;6.47;;;;;;;16.67;63.87;102040.81;5213231;28;20488;-66
2022/06/02 10:32:57;;;;;;;7.63;6.78;;;;;;;16.77;61.60;102043.59;5208937;28;20029;-65
2022/06/02 10:36:08;;;;;;;7.32;6.63;;;;;;;16.93;63.07;102040.50;5213703;28;20443;-65
2022/06/02 10:38:53;;;;;;;7.43;5.72;;;;;;;17.21;60.50;102036.31;5208594;28;20048;-65
2022/06/02 10:41:36;;;;;;;6.95;5.60;;;;;;;17.27;59.97;102038.47;5210154;28;20439;-65
2022/06/02 10:44:15;;;;;;;6.18;5.00;;;;;;;17.38;59.88;102040.25;5211749;28;20037;-65
2022/06/02 10:47:07;;;;;;;6.15;5.43;;;;;;;17.75;57.84;102026.25;5208941;28;20018;-65
2022/06/02 10:49:39;;;;;;;6.55;5.35;;;;;;;17.55;59.39;102025.31;5221392;28;20044;-65
2022/06/02 10:52:29;;;;;;;7.03;5.45;;;;;;;17.87;59.77;102032.44;5214097;28;20030;-65
2022/06/02 10:55:58;;;;;;;7.47;5.78;;;;;;;18.14;61.51;102023.69;5209984;28;20057;-65
2022/06/02 10:58:54;;;;;;;6.13;5.43;;;;;;;18.27;61.60;102016.19;5187645;28;20146;-65
2022/06/02 11:02:19;;;;;;;6.47;5.13;;;;;;;18.26;62.97;102014.50;5186431;28;20172;-66
2022/06/02 11:05:09;;;;;;;7.03;5.55;;;;;;;18.16;60.09;102028.00;5209295;28;20185;-66
2022/06/02 11:08:24;;;;;;;6.70;6.00;;;;;;;18.17;60.87;102026.13;5211267;28;20042;-66
2022/06/02 11:11:16;;;;;;;;;;;;;;;18.15;64.59;102025.41;5212058;28;20358;-66
2022/06/02 11:14:03;;;;;;;7.82;7.03;;;;;;;17.70;60.32;102018.56;5209973;28;20450;-65
2022/06/02 11:17:14;;;;;;;7.53;6.82;;;;;;;17.67;58.97;102024.22;5208487;28;20049;-65
2022/06/02 11:20:01;;;;;;;8.23;7.43;;;;;;;17.72;57.46;102021.97;5206803;28;20407;-66
2022/06/02 11:23:07;;;;;;;8.43;7.00;;;;;;;17.93;58.55;102012.97;5209691;28;20033;-65
2022/06/02 11:26:04;;;;;;;7.70;6.63;;;;;;;17.95;60.02;102016.38;5209364;28;20018;-65
2022/06/02 11:28:57;;;;;;;7.47;6.38;;;;;;;17.81;60.94;102002.28;5210854;28;20026;-65
2022/06/02 11:32:04;;;;;;;6.60;5.05;;;;;;;17.86;58.32;102011.84;5212672;28;20029;-66
2022/06/02 11:34:47;;;;;;;6.05;5.30;;;;;;;17.78;59.10;102005.22;5211427;28;20048;-65
2022/06/02 11:37:51;;;;;;;6.40;5.80;;;;;;;17.64;58.50;102008.28;5211573;28;20029;-65
2022/06/02 11:40:53;;;;;;;6.55;5.82;;;;;;;17.64;58.96;102002.88;5210710;28;20404;-65
2022/06/02 11:43:48;;;;;;;6.00;5.15;;;;;;;17.60;57.62;101999.63;5212689;28;20518;-65
2022/06/02 11:46:53;;;;;;;6.95;6.10;;;;;;;17.55;56.47;101992.94;5212988;28;20029;-65
2022/06/02 11:49:51;;;;;;;6.72;5.32;;;;;;;17.95;58.11;102000.19;5209841;28;20026;-65
2022/06/02 11:52:37;;;;;;;6.10;5.10;;;;;;;18.29;54.47;101989.03;5212925;28;20388;-66
2022/06/02 11:55:23;;;;;;;6.90;5.43;;;;;;;18.60;52.86;101981.66;5209985;28;20032;-66
2022/06/02 11:58:09;;;;;;;5.82;5.10;;;;;;;18.76;55.18;101981.09;5210456;28;20087;-66
2022/06/02 12:01:12;;;;;;;7.78;5.20;;;;;;;18.97;54.25;101968.31;5212828;28;20526;-66
2022/06/02 12:04:11;;;;;;;5.05;4.20;;;;;;;19.04;53.93;101971.25;5209647;28;20065;-66
2022/06/02 12:07:00;;;;;;;5.28;4.78;;;;;;;19.12;52.34;101966.00;5212304;28;20134;-66
2022/06/02 12:09:53;;;;;;;5.25;4.60;;;;;;;19.09;54.16;101963.56;5210476;28;20531;-65
2022/06/02 12:12:58;;;;;;;5.45;4.35;;;;;;;19.36;54.39;101961.94;5208478;28;20034;-66
2022/06/02 12:15:59;;;;;;;5.93;4.65;;;;;;;19.35;49.52;101969.22;5210444;28;20508;-66
2022/06/02 12:18:37;;;;;;;5.13;4.40;;;;;;;19.43;49.85;101959.50;5206861;28;20064;-66
2022/06/02 12:21:33;;;;;;;4.60;3.90;;;;;;;19.53;53.59;101954.88;5213810;28;20456;-66
2022/06/02 12:24:34;;;;;;;5.57;4.68;;;;;;;19.64;50.32;101946.56;5208022;28;20073;-66
2022/06/02 12:27:24;;;;;;;5.70;4.47;;;;;;;19.50;49.13;101944.34;5207491;28;20105;-66
2022/06/02 12:30:25;;;;;;;5.80;5.00;;;;;;;19.37;49.68;101942.84;5213049;28;20034;-66
2022/06/02 12:33:36;;;;;;;6.75;4.47;;;;;;;19.49;49.96;101937.25;5206182;28;20041;-65
2022/06/02 12:36:27;;;;;;;4.90;4.40;;;;;;;19.50;51.05;101944.34;5210703;28;20049;-66
2022/06/02 12:39:29;;;;;;;5.88;4.97;;;;;;;19.43;49.40;101940.56;5211173;28;20030;-66
2022/06/02 12:42:27;;;;;;;4.75;4.28;;;;;;;19.58;49.68;101939.91;5211714;28;20040;-66
2022/06/02 12:45:12;;;;;;;5.30;4.30;;;;;;;19.60;46.84;101931.66;5208577;28;20109;-66
2022/06/02 12:48:21;;;;;;;5.20;4.45;;;;;;;19.65;49.68;101932.03;5209968;28;20021;-66
2022/06/02 12:50:58;;;;;;;5.40;4.90;;;;;;;19.62;47.15;101928.75;5215460;28;20113;-66
2022/06/02 12:53:41;;;;;;;6.22;4.93;;;;;;;19.49;48.07;101916.44;5212087;28;20473;-66
2022/06/02 12:56:49;;;;;;;5.80;4.50;;;;;;;19.40;48.28;101923.59;5215528;28;20034;-66
2022/06/02 12:59:47;;;;;;;5.00;4.45;;;;;;;19.43;48.56;101921.63;5210093;28;20025;-66
2022/06/02 13:02:50;;;;;;;6.45;4.78;;;;;;;19.44;51.07;101917.88;5215454;28;20077;-66
2022/06/02 13:06:01;;;;;;;5.50;5.00;;;;;;;19.38;49.39;101914.75;5210491;28;20034;-66
2022/06/02 13:09:10;;;;;;;6.05;5.22;;;;;;;19.50;47.51;101925.41;5206717;28;20038;-66
2022/06/02 13:11:41;;;;;;;5.70;5.10;;;;;;;19.31;45.24;101919.09;5214168;28;20037;-66
2022/06/02 13:14:34;;;;;;;6.32;5.35;;;;;;;19.46;46.28;101913.16;5213486;28;20137;-66
2022/06/02 13:17:29;;;;;;;5.25;4.55;;;;;;;19.45;46.13;101914.19;5211552;28;20053;-66
2022/06/02 13:20:17;;;;;;;6.03;4.50;;;;;;;19.51;49.92;101914.44;5214836;28;20365;-66
2022/06/02 13:23:23;;;;;;;4.85;4.03;;;;;;;19.56;47.05;101916.72;5210429;28;20042;-66